createdAt,value
2018-09-27T00:00:14.893Z,66.534424
2018-09-27T00:00:44.595Z,67.132568
2018-09-27T00:01:14.740Z,66.864014
2018-09-27T00:01:44.444Z,66.63208
2018-09-27T00:02:14.559Z,66.534424
2018-09-27T00:02:44.209Z,66.430664
2018-09-27T00:03:14.114Z,66.333008
2018-09-27T00:03:44.628Z,66.235352
2018-09-27T00:04:14.899Z,66.064453
2018-09-27T00:04:44.445Z,66.564941
2018-09-27T00:05:14.598Z,66.766357
2018-09-27T00:05:44.335Z,66.662598
2018-09-27T00:06:14.102Z,66.766357
2018-09-27T00:06:43.744Z,66.766357
2018-09-27T00:07:13.366Z,66.96167
2018-09-27T00:07:42.902Z,67.06543
2018-09-27T00:08:12.562Z,67.163086
2018-09-27T00:08:42.267Z,67.06543
2018-09-27T00:09:11.857Z,66.864014
2018-09-27T00:09:41.441Z,66.864014
2018-09-27T00:10:11.020Z,66.96167
2018-09-27T00:10:40.850Z,66.96167
2018-09-27T00:11:10.329Z,67.193604
2018-09-27T00:11:40.903Z,67.39502
2018-09-27T00:12:10.646Z,67.297363
2018-09-27T00:12:40.817Z,67.193604
2018-09-27T00:13:11.292Z,67.095947
2018-09-27T00:13:40.904Z,67.06543
2018-09-27T00:14:11.048Z,66.766357
2018-09-27T00:14:41.241Z,66.864014
2018-09-27T00:15:11.084Z,66.766357
2018-09-27T00:15:40.480Z,66.96167
2018-09-27T00:16:10.485Z,66.96167
2018-09-27T00:16:40.507Z,66.766357
2018-09-27T00:17:10.672Z,66.864014
2018-09-27T00:17:40.497Z,66.564941
2018-09-27T00:18:10.612Z,66.662598
2018-09-27T00:18:40.606Z,66.467285
2018-09-27T00:19:09.977Z,66.467285
2018-09-27T00:19:39.584Z,66.564941
2018-09-27T00:20:08.843Z,66.363525
2018-09-27T00:20:39.165Z,66.662598
2018-09-27T00:21:08.542Z,66.467285
2018-09-27T00:21:37.961Z,66.467285
2018-09-27T00:22:07.321Z,66.467285
2018-09-27T00:22:37.195Z,66.064453
2018-09-27T00:23:08.476Z,66.064453
2018-09-27T00:23:38.460Z,66.064453
2018-09-27T00:24:07.834Z,65.966797
2018-09-27T00:24:37.244Z,66.168213
2018-09-27T00:25:07.611Z,66.168213
2018-09-27T00:25:37.302Z,66.265869
2018-09-27T00:26:06.676Z,66.168213
2018-09-27T00:26:36.243Z,66.168213
2018-09-27T00:27:05.945Z,65.869141
2018-09-27T00:27:35.311Z,66.19873
2018-09-27T00:28:05.340Z,66.094971
2018-09-27T00:28:34.730Z,66.296387
2018-09-27T00:29:04.162Z,66.19873
2018-09-27T00:29:33.697Z,66.296387
2018-09-27T00:30:03.062Z,66.19873
2018-09-27T00:30:32.695Z,66.094971
2018-09-27T00:31:03.023Z,66.094971
2018-09-27T00:31:33.827Z,66.094971
2018-09-27T00:32:03.913Z,66.094971
2018-09-27T00:32:33.553Z,66.497803
2018-09-27T00:33:03.097Z,66.168213
2018-09-27T00:33:32.656Z,66.265869
2018-09-27T00:34:02.714Z,66.467285
2018-09-27T00:34:32.360Z,66.564941
2018-09-27T00:35:01.726Z,66.064453
2018-09-27T00:35:31.285Z,65.765381
2018-09-27T00:36:00.987Z,65.667725
2018-09-27T00:36:31.091Z,66.363525
2018-09-27T00:37:00.384Z,65.869141
2018-09-27T00:37:29.961Z,66.094971
2018-09-27T00:37:59.440Z,66.168213
2018-09-27T00:38:28.878Z,66.296387
2018-09-27T00:38:58.278Z,66.394043
2018-09-27T00:39:27.848Z,66.19873
2018-09-27T00:39:58.007Z,66.699219
2018-09-27T00:40:27.723Z,67.095947
2018-09-27T00:40:57.115Z,67.297363
2018-09-27T00:41:27.638Z,67.529297
2018-09-27T00:41:57.067Z,67.724609
2018-09-27T00:42:26.851Z,67.626953
2018-09-27T00:42:56.734Z,67.895508
2018-09-27T00:43:26.689Z,68.695068
2018-09-27T00:43:57.476Z,67.895508
2018-09-27T00:44:27.058Z,68.096924
2018-09-27T00:44:57.431Z,68.096924
2018-09-27T00:45:26.972Z,67.993164
2018-09-27T00:45:56.375Z,67.993164
2018-09-27T00:46:25.883Z,67.993164
2018-09-27T00:46:55.419Z,68.096924
2018-09-27T00:47:25.048Z,68.292236
2018-09-27T00:47:54.608Z,68.591309
2018-09-27T00:48:23.959Z,68.695068
2018-09-27T00:48:53.509Z,68.395996
2018-09-27T00:49:23.009Z,68.096924
2018-09-27T00:49:52.366Z,67.895508
2018-09-27T00:50:22.154Z,67.596436
2018-09-27T00:50:51.809Z,67.596436
2018-09-27T00:51:21.523Z,67.39502
2018-09-27T00:51:51.360Z,66.998291
2018-09-27T00:52:21.223Z,67.297363
2018-09-27T00:52:50.837Z,66.998291
2018-09-27T00:53:20.408Z,67.095947
2018-09-27T00:53:50.283Z,67.095947
2018-09-27T00:54:19.743Z,66.998291
2018-09-27T00:54:49.372Z,66.998291
2018-09-27T00:55:19.045Z,66.998291
2018-09-27T00:55:48.830Z,67.193604
2018-09-27T00:56:18.215Z,67.193604
2018-09-27T00:56:47.979Z,67.297363
2018-09-27T00:57:18.247Z,67.39502
2018-09-27T00:57:48.251Z,67.193604
2018-09-27T00:58:17.773Z,67.297363
2018-09-27T00:58:47.419Z,67.297363
2018-09-27T00:59:17.006Z,67.626953
2018-09-27T00:59:46.396Z,67.828369
2018-09-27T01:00:16.538Z,67.596436
2018-09-27T01:00:45.929Z,67.297363
2018-09-27T01:01:15.659Z,67.095947
2018-09-27T01:01:45.385Z,67.193604
2018-09-27T01:02:15.312Z,67.095947
2018-09-27T01:02:45.232Z,67.297363
2018-09-27T01:03:15.276Z,67.095947
2018-09-27T01:03:44.785Z,67.193604
2018-09-27T01:04:14.382Z,67.193604
2018-09-27T01:04:44.061Z,67.193604
2018-09-27T01:05:13.901Z,67.193604
2018-09-27T01:05:43.371Z,67.39502
2018-09-27T01:06:12.931Z,67.095947
2018-09-27T01:06:42.309Z,67.193604
2018-09-27T01:07:11.723Z,67.297363
2018-09-27T01:07:41.410Z,67.297363
2018-09-27T01:08:10.861Z,67.596436
2018-09-27T01:08:40.591Z,67.095947
2018-09-27T01:09:10.763Z,67.095947
2018-09-27T01:09:40.917Z,67.095947
2018-09-27T01:10:10.300Z,66.894531
2018-09-27T01:10:40.068Z,66.796875
2018-09-27T01:11:09.476Z,66.796875
2018-09-27T01:11:39.353Z,66.699219
2018-09-27T01:12:09.123Z,66.796875
2018-09-27T01:12:38.773Z,66.595459
2018-09-27T01:13:08.175Z,66.595459
2018-09-27T01:13:37.718Z,66.595459
2018-09-27T01:14:07.160Z,66.595459
2018-09-27T01:14:36.769Z,66.497803
2018-09-27T01:15:06.197Z,66.497803
2018-09-27T01:15:35.558Z,66.497803
2018-09-27T01:16:05.080Z,66.296387
2018-09-27T01:16:34.581Z,66.394043
2018-09-27T01:17:04.224Z,66.394043
2018-09-27T01:17:33.787Z,66.497803
2018-09-27T01:18:03.236Z,66.394043
2018-09-27T01:18:32.674Z,66.497803
2018-09-27T01:19:02.067Z,66.497803
2018-09-27T01:19:31.454Z,66.296387
2018-09-27T01:20:01.821Z,66.766357
2018-09-27T01:20:31.184Z,66.265869
2018-09-27T01:21:00.548Z,66.168213
2018-09-27T01:21:29.921Z,66.168213
2018-09-27T01:21:59.291Z,66.168213
2018-09-27T01:22:28.749Z,66.064453
2018-09-27T01:22:58.945Z,66.467285
2018-09-27T01:23:29.777Z,66.168213
2018-09-27T01:23:59.186Z,66.064453
2018-09-27T01:24:28.546Z,66.168213
2018-09-27T01:24:57.922Z,66.168213
2018-09-27T01:25:27.449Z,66.864014
2018-09-27T01:25:56.812Z,66.363525
2018-09-27T01:26:26.180Z,66.064453
2018-09-27T01:26:55.551Z,66.168213
2018-09-27T01:27:24.966Z,66.094971
2018-09-27T01:27:54.502Z,66.699219
2018-09-27T01:28:24.067Z,66.467285
2018-09-27T01:28:54.678Z,66.394043
2018-09-27T01:29:24.090Z,66.296387
2018-09-27T01:29:53.608Z,66.497803
2018-09-27T01:30:22.974Z,66.595459
2018-09-27T01:30:52.339Z,66.595459
2018-09-27T01:31:21.867Z,66.595459
2018-09-27T01:31:51.322Z,66.595459
2018-09-27T01:32:20.690Z,66.699219
2018-09-27T01:32:50.080Z,66.699219
2018-09-27T01:33:19.606Z,66.662598
2018-09-27T01:33:49.037Z,66.564941
2018-09-27T01:34:18.536Z,66.564941
2018-09-27T01:34:48.052Z,66.662598
2018-09-27T01:35:17.686Z,66.564941
2018-09-27T01:35:47.053Z,66.564941
2018-09-27T01:36:16.416Z,67.163086
2018-09-27T01:36:45.833Z,66.662598
2018-09-27T01:37:15.420Z,66.662598
2018-09-27T01:37:44.786Z,66.467285
2018-09-27T01:38:14.249Z,66.595459
2018-09-27T01:38:44.045Z,66.699219
2018-09-27T01:39:13.693Z,66.796875
2018-09-27T01:39:43.061Z,66.662598
2018-09-27T01:40:12.478Z,66.564941
2018-09-27T01:40:41.866Z,66.564941
2018-09-27T01:41:11.306Z,66.363525
2018-09-27T01:41:40.675Z,66.265869
2018-09-27T01:42:10.049Z,66.064453
2018-09-27T01:42:39.699Z,66.265869
2018-09-27T01:43:09.270Z,66.064453
2018-09-27T01:43:38.894Z,66.168213
2018-09-27T01:44:08.264Z,66.168213
2018-09-27T01:44:37.832Z,66.363525
2018-09-27T01:45:07.451Z,66.363525
2018-09-27T01:45:36.808Z,66.595459
2018-09-27T01:46:06.187Z,66.564941
2018-09-27T01:46:35.709Z,66.497803
2018-09-27T01:47:05.262Z,66.497803
2018-09-27T01:47:34.829Z,67.06543
2018-09-27T01:48:04.193Z,66.998291
2018-09-27T01:48:33.650Z,66.796875
2018-09-27T01:49:03.023Z,66.699219
2018-09-27T01:49:32.391Z,67.230225
2018-09-27T01:50:01.918Z,68.359375
2018-09-27T01:50:31.438Z,69.189453
2018-09-27T01:51:00.825Z,69.622803
2018-09-27T01:51:30.186Z,69.726562
2018-09-27T01:51:59.722Z,69.927979
2018-09-27T01:52:29.193Z,70.123291
2018-09-27T01:52:58.828Z,70.123291
2018-09-27T01:53:28.202Z,70.123291
2018-09-27T01:53:57.822Z,70.324707
2018-09-27T01:54:27.519Z,70.227051
2018-09-27T01:54:56.956Z,70.092773
2018-09-27T01:55:26.449Z,69.494629
2018-09-27T01:55:55.973Z,69.091797
2018-09-27T01:56:25.451Z,69.061279
2018-09-27T01:56:55.039Z,68.859863
2018-09-27T01:57:24.407Z,68.560791
2018-09-27T01:57:53.944Z,68.457031
2018-09-27T01:58:23.388Z,68.859863
2018-09-27T01:58:52.892Z,68.261719
2018-09-27T01:59:22.183Z,68.157959
2018-09-27T01:59:51.630Z,68.029785
2018-09-27T02:00:21.099Z,67.926025
2018-09-27T02:00:50.609Z,67.926025
2018-09-27T02:01:20.163Z,67.724609
2018-09-27T02:01:50.758Z,67.926025
2018-09-27T02:02:21.228Z,67.724609
2018-09-27T02:02:51.810Z,67.724609
2018-09-27T02:03:21.211Z,67.828369
2018-09-27T02:03:50.952Z,67.724609
2018-09-27T02:04:20.379Z,67.626953
2018-09-27T02:04:50.882Z,67.425537
2018-09-27T02:05:20.257Z,67.529297
2018-09-27T02:05:49.761Z,67.596436
2018-09-27T02:06:19.383Z,67.596436
2018-09-27T02:06:48.752Z,67.492676
2018-09-27T02:07:18.128Z,67.297363
2018-09-27T02:07:47.702Z,67.297363
2018-09-27T02:08:17.267Z,67.193604
2018-09-27T02:08:46.715Z,67.193604
2018-09-27T02:09:16.326Z,67.126465
2018-09-27T02:09:45.751Z,67.193604
2018-09-27T02:10:15.231Z,67.095947
2018-09-27T02:10:44.593Z,66.998291
2018-09-27T02:11:13.963Z,66.998291
2018-09-27T02:11:43.454Z,67.028809
2018-09-27T02:12:12.821Z,66.998291
2018-09-27T02:12:42.181Z,66.998291
2018-09-27T02:13:11.965Z,66.894531
2018-09-27T02:13:41.475Z,66.894531
2018-09-27T02:14:11.011Z,66.998291
2018-09-27T02:14:40.373Z,67.230225
2018-09-27T02:15:09.865Z,67.230225
2018-09-27T02:15:39.442Z,67.297363
2018-09-27T02:16:08.833Z,67.297363
2018-09-27T02:16:38.207Z,67.230225
2018-09-27T02:17:07.816Z,67.193604
2018-09-27T02:17:37.273Z,67.095947
2018-09-27T02:18:06.649Z,67.327881
2018-09-27T02:18:36.022Z,67.425537
2018-09-27T02:19:05.402Z,67.095947
2018-09-27T02:19:34.841Z,66.894531
2018-09-27T02:20:04.210Z,66.998291
2018-09-27T02:20:33.605Z,66.894531
2018-09-27T02:21:03.398Z,66.998291
2018-09-27T02:21:33.787Z,67.095947
2018-09-27T02:22:03.305Z,66.699219
2018-09-27T02:22:32.799Z,66.796875
2018-09-27T02:23:02.179Z,66.699219
2018-09-27T02:23:31.720Z,66.699219
2018-09-27T02:24:01.169Z,66.497803
2018-09-27T02:24:30.917Z,66.497803
2018-09-27T02:25:00.377Z,66.595459
2018-09-27T02:25:29.975Z,66.796875
2018-09-27T02:25:59.620Z,66.497803
2018-09-27T02:26:29.147Z,66.394043
2018-09-27T02:26:58.537Z,66.497803
2018-09-27T02:27:28.003Z,66.595459
2018-09-27T02:27:57.402Z,66.394043
2018-09-27T02:28:26.799Z,66.394043
2018-09-27T02:28:56.248Z,66.296387
2018-09-27T02:29:26.966Z,66.19873
2018-09-27T02:29:56.832Z,66.394043
2018-09-27T02:30:26.876Z,66.394043
2018-09-27T02:30:56.245Z,66.497803
2018-09-27T02:31:25.808Z,67.028809
2018-09-27T02:31:55.374Z,67.657471
2018-09-27T02:32:24.755Z,68.493652
2018-09-27T02:32:55.223Z,68.292236
2018-09-27T02:33:24.748Z,68.261719
2018-09-27T02:33:54.302Z,68.157959
2018-09-27T02:34:23.672Z,67.962646
2018-09-27T02:34:53.451Z,67.76123
2018-09-27T02:35:23.395Z,67.657471
2018-09-27T02:35:53.302Z,67.425537
2018-09-27T02:36:23.051Z,67.425537
2018-09-27T02:36:52.850Z,67.126465
2018-09-27T02:37:22.535Z,66.931152
2018-09-27T02:37:51.945Z,67.028809
2018-09-27T02:38:21.317Z,66.827393
2018-09-27T02:38:51.682Z,66.827393
2018-09-27T02:39:21.282Z,66.931152
2018-09-27T02:39:50.651Z,66.931152
2018-09-27T02:40:20.168Z,67.028809
2018-09-27T02:40:49.610Z,67.028809
2018-09-27T02:41:19.939Z,66.827393
2018-09-27T02:41:49.307Z,66.625977
2018-09-27T02:42:18.883Z,66.52832
2018-09-27T02:42:48.535Z,66.326904
2018-09-27T02:43:18.147Z,66.326904
2018-09-27T02:43:47.999Z,66.52832
2018-09-27T02:44:17.658Z,66.430664
2018-09-27T02:44:47.799Z,66.131592
2018-09-27T02:45:17.473Z,66.326904
2018-09-27T02:45:47.075Z,66.326904
2018-09-27T02:46:16.563Z,66.430664
2018-09-27T02:46:45.945Z,66.326904
2018-09-27T02:47:15.674Z,66.326904
2018-09-27T02:47:45.247Z,66.625977
2018-09-27T02:48:15.042Z,66.827393
2018-09-27T02:48:44.763Z,66.931152
2018-09-27T02:49:14.279Z,66.931152
2018-09-27T02:49:43.646Z,66.827393
2018-09-27T02:50:13.429Z,67.028809
2018-09-27T02:50:42.797Z,66.931152
2018-09-27T02:51:13.493Z,67.028809
2018-09-27T02:51:43.030Z,67.059326
2018-09-27T02:52:12.553Z,67.126465
2018-09-27T02:52:41.919Z,67.028809
2018-09-27T02:53:11.562Z,66.931152
2018-09-27T02:53:41.456Z,66.827393
2018-09-27T02:54:11.211Z,67.126465
2018-09-27T02:54:40.796Z,67.126465
2018-09-27T02:55:10.216Z,67.327881
2018-09-27T02:55:39.757Z,67.028809
2018-09-27T02:56:09.119Z,67.028809
2018-09-27T02:56:38.555Z,67.126465
2018-09-27T02:57:08.263Z,67.028809
2018-09-27T02:57:37.954Z,66.827393
2018-09-27T02:58:07.534Z,67.059326
2018-09-27T02:58:36.901Z,67.163086
2018-09-27T02:59:06.366Z,67.462158
2018-09-27T02:59:36.044Z,67.962646
2018-09-27T03:00:05.421Z,68.060303
2018-09-27T03:00:34.926Z,68.060303
2018-09-27T03:01:04.294Z,67.962646
2018-09-27T03:01:33.925Z,67.962646
2018-09-27T03:02:04.791Z,67.858887
2018-09-27T03:02:34.183Z,67.76123
2018-09-27T03:03:03.642Z,67.559814
2018-09-27T03:03:33.997Z,67.657471
2018-09-27T03:04:03.595Z,67.76123
2018-09-27T03:04:33.276Z,67.694092
2018-09-27T03:05:02.659Z,67.791748
2018-09-27T03:05:32.996Z,67.962646
2018-09-27T03:06:02.506Z,67.462158
2018-09-27T03:06:32.573Z,67.260742
2018-09-27T03:07:02.305Z,67.492676
2018-09-27T03:07:31.877Z,67.694092
2018-09-27T03:08:01.256Z,67.590332
2018-09-27T03:08:31.014Z,67.559814
2018-09-27T03:09:00.772Z,67.492676
2018-09-27T03:09:30.648Z,67.462158
2018-09-27T03:10:01.093Z,67.39502
2018-09-27T03:10:30.480Z,67.590332
2018-09-27T03:11:00.155Z,67.462158
2018-09-27T03:11:29.683Z,67.358398
2018-09-27T03:11:59.550Z,67.462158
2018-09-27T03:12:28.957Z,67.260742
2018-09-27T03:12:58.811Z,67.260742
2018-09-27T03:13:28.215Z,67.163086
2018-09-27T03:13:57.826Z,67.163086
2018-09-27T03:14:27.098Z,67.260742
2018-09-27T03:14:56.724Z,67.260742
2018-09-27T03:15:26.070Z,67.260742
2018-09-27T03:15:55.480Z,67.260742
2018-09-27T03:16:24.853Z,67.358398
2018-09-27T03:16:54.225Z,66.96167
2018-09-27T03:17:23.593Z,66.96167
2018-09-27T03:17:53.966Z,67.059326
2018-09-27T03:18:23.329Z,67.059326
2018-09-27T03:18:53.376Z,66.85791
2018-09-27T03:19:23.907Z,66.760254
2018-09-27T03:19:53.288Z,67.059326
2018-09-27T03:20:23.827Z,66.85791
2018-09-27T03:20:53.219Z,66.96167
2018-09-27T03:21:22.611Z,66.96167
2018-09-27T03:21:51.976Z,67.260742
2018-09-27T03:22:21.334Z,66.85791
2018-09-27T03:22:50.694Z,66.85791
2018-09-27T03:23:20.050Z,66.662598
2018-09-27T03:23:49.415Z,66.662598
2018-09-27T03:24:18.768Z,66.760254
2018-09-27T03:24:49.110Z,66.85791
2018-09-27T03:25:18.486Z,66.85791
2018-09-27T03:25:47.846Z,66.760254
2018-09-27T03:26:17.253Z,66.760254
2018-09-27T03:26:46.620Z,66.85791
2018-09-27T03:27:16.986Z,67.059326
2018-09-27T03:27:46.342Z,67.29126
2018-09-27T03:28:15.707Z,67.29126
2018-09-27T03:28:45.070Z,68.389893
2018-09-27T03:29:14.434Z,67.492676
2018-09-27T03:29:43.853Z,67.590332
2018-09-27T03:30:13.219Z,67.590332
2018-09-27T03:30:42.579Z,67.492676
2018-09-27T03:31:11.996Z,67.29126
2018-09-27T03:31:41.361Z,67.29126
2018-09-27T03:32:10.728Z,67.193604
2018-09-27T03:32:40.092Z,67.492676
2018-09-27T03:33:09.446Z,67.492676
2018-09-27T03:33:38.806Z,68.127441
2018-09-27T03:34:08.195Z,68.322754
2018-09-27T03:34:37.557Z,68.322754
2018-09-27T03:35:06.901Z,68.426514
2018-09-27T03:35:36.254Z,68.52417
2018-09-27T03:36:05.639Z,68.52417
2018-09-27T03:36:35.055Z,68.127441
2018-09-27T03:37:04.424Z,68.023682
2018-09-27T03:37:33.792Z,68.127441
2018-09-27T03:38:04.148Z,67.822266
2018-09-27T03:38:33.519Z,67.822266
2018-09-27T03:39:02.878Z,67.822266
2018-09-27T03:39:32.252Z,67.626953
2018-09-27T03:40:01.608Z,67.626953
2018-09-27T03:40:31.023Z,68.023682
2018-09-27T03:41:00.325Z,68.023682
2018-09-27T03:41:29.744Z,67.926025
2018-09-27T03:41:59.099Z,68.023682
2018-09-27T03:42:29.494Z,68.225098
2018-09-27T03:42:58.815Z,70.123291
2018-09-27T03:43:28.184Z,68.322754
2018-09-27T03:43:57.553Z,68.322754
2018-09-27T03:44:27.906Z,68.127441
2018-09-27T03:44:57.272Z,68.225098
2018-09-27T03:45:26.646Z,68.127441
2018-09-27T03:45:56.034Z,68.322754
2018-09-27T03:46:25.401Z,68.52417
2018-09-27T03:46:55.806Z,68.322754
2018-09-27T03:47:25.173Z,68.023682
2018-09-27T03:47:54.538Z,67.926025
2018-09-27T03:48:23.904Z,68.127441
2018-09-27T03:48:53.284Z,68.322754
2018-09-27T03:49:22.645Z,68.322754
2018-09-27T03:49:52.007Z,68.426514
2018-09-27T03:50:21.368Z,68.322754
2018-09-27T03:50:50.806Z,68.127441
2018-09-27T03:51:20.175Z,68.023682
2018-09-27T03:51:49.586Z,68.225098
2018-09-27T03:52:18.952Z,68.994141
2018-09-27T03:52:48.351Z,67.590332
2018-09-27T03:53:17.729Z,67.926025
2018-09-27T03:53:47.103Z,68.554688
2018-09-27T03:54:16.462Z,68.658447
2018-09-27T03:54:46.821Z,68.859863
2018-09-27T03:55:16.186Z,68.859863
2018-09-27T03:55:45.546Z,68.859863
2018-09-27T03:56:14.900Z,68.756104
2018-09-27T03:56:44.263Z,68.621826
2018-09-27T03:57:13.679Z,68.859863
2018-09-27T03:57:43.034Z,68.756104
2018-09-27T03:58:12.399Z,68.756104
2018-09-27T03:58:41.762Z,68.457031
2018-09-27T03:59:11.133Z,68.322754
2018-09-27T03:59:40.505Z,68.322754
2018-09-27T04:00:09.854Z,68.127441
2018-09-27T04:00:39.227Z,68.225098
2018-09-27T04:01:08.588Z,67.926025
2018-09-27T04:01:37.989Z,67.926025
2018-09-27T04:02:07.402Z,67.822266
2018-09-27T04:02:37.762Z,67.822266
2018-09-27T04:03:07.224Z,67.926025
2018-09-27T04:03:36.495Z,68.554688
2018-09-27T04:04:05.883Z,68.95752
2018-09-27T04:04:35.262Z,69.055176
2018-09-27T04:05:04.621Z,69.055176
2018-09-27T04:05:33.983Z,68.95752
2018-09-27T04:06:03.344Z,69.256592
2018-09-27T04:06:32.705Z,68.658447
2018-09-27T04:07:02.091Z,68.457031
2018-09-27T04:07:31.512Z,68.457031
2018-09-27T04:08:00.871Z,68.554688
2018-09-27T04:08:30.252Z,68.756104
2018-09-27T04:08:59.614Z,68.554688
2018-09-27T04:09:28.973Z,68.756104
2018-09-27T04:09:59.341Z,68.457031
2018-09-27T04:10:28.711Z,68.359375
2018-09-27T04:10:58.078Z,68.023682
2018-09-27T04:11:27.434Z,69.42749
2018-09-27T04:11:56.802Z,68.322754
2018-09-27T04:12:26.211Z,67.626953
2018-09-27T04:12:55.584Z,67.523193
2018-09-27T04:13:24.930Z,67.523193
2018-09-27T04:13:54.298Z,67.657471
2018-09-27T04:14:23.656Z,68.157959
2018-09-27T04:14:54.013Z,67.956543
2018-09-27T04:15:23.407Z,68.054199
2018-09-27T04:15:52.831Z,68.591309
2018-09-27T04:16:22.141Z,69.293213
2018-09-27T04:16:51.503Z,69.525146
2018-09-27T04:17:20.900Z,69.927979
2018-09-27T04:17:50.317Z,69.726562
2018-09-27T04:18:19.764Z,69.622803
2018-09-27T04:18:49.129Z,70.391846
2018-09-27T04:19:18.480Z,69.592285
2018-09-27T04:19:47.841Z,69.488525
2018-09-27T04:20:17.202Z,69.793701
2018-09-27T04:20:46.570Z,69.055176
2018-09-27T04:21:15.925Z,68.658447
2018-09-27T04:21:46.303Z,68.658447
2018-09-27T04:22:15.627Z,68.457031
2018-09-27T04:22:45.045Z,68.756104
2018-09-27T04:23:14.405Z,68.255615
2018-09-27T04:23:43.769Z,68.255615
2018-09-27T04:24:13.133Z,68.255615
2018-09-27T04:24:42.490Z,68.359375
2018-09-27T04:25:11.836Z,68.359375
2018-09-27T04:25:41.204Z,68.457031
2018-09-27T04:26:10.565Z,68.554688
2018-09-27T04:26:39.943Z,68.359375
2018-09-27T04:27:09.308Z,68.359375
2018-09-27T04:27:38.735Z,68.359375
2018-09-27T04:28:08.101Z,68.359375
2018-09-27T04:28:37.466Z,68.359375
2018-09-27T04:29:06.825Z,69.055176
2018-09-27T04:29:36.189Z,69.689941
2018-09-27T04:30:05.540Z,69.793701
2018-09-27T04:30:34.902Z,70.593262
2018-09-27T04:31:04.270Z,69.891357
2018-09-27T04:31:33.634Z,69.989014
2018-09-27T04:32:03.011Z,69.891357
2018-09-27T04:32:33.376Z,69.793701
2018-09-27T04:33:03.783Z,70.159912
2018-09-27T04:33:33.150Z,69.689941
2018-09-27T04:34:02.505Z,69.793701
2018-09-27T04:34:32.857Z,69.891357
2018-09-27T04:35:02.229Z,69.989014
2018-09-27T04:35:31.579Z,69.75708
2018-09-27T04:36:00.941Z,69.891357
2018-09-27T04:36:30.304Z,69.989014
2018-09-27T04:36:59.677Z,70.495605
2018-09-27T04:37:29.060Z,71.496582
2018-09-27T04:37:58.421Z,70.690918
2018-09-27T04:38:27.837Z,70.690918
2018-09-27T04:38:57.200Z,70.495605
2018-09-27T04:39:26.587Z,70.391846
2018-09-27T04:39:55.967Z,70.391846
2018-09-27T04:40:25.294Z,70.861816
2018-09-27T04:40:54.676Z,69.86084
2018-09-27T04:41:24.032Z,70.758057
2018-09-27T04:41:53.404Z,69.458008
2018-09-27T04:42:22.769Z,69.927979
2018-09-27T04:42:52.148Z,69.622803
2018-09-27T04:43:21.555Z,69.525146
2018-09-27T04:43:50.921Z,69.122314
2018-09-27T04:44:20.300Z,69.122314
2018-09-27T04:44:50.689Z,68.792725
2018-09-27T04:45:20.025Z,68.792725
2018-09-27T04:45:49.412Z,68.792725
2018-09-27T04:46:18.748Z,68.994141
2018-09-27T04:46:48.238Z,68.292236
2018-09-27T04:47:17.484Z,68.493652
2018-09-27T04:47:46.840Z,67.993164
2018-09-27T04:48:17.195Z,68.09082
2018-09-27T04:48:46.609Z,68.292236
2018-09-27T04:49:15.974Z,68.09082
2018-09-27T04:49:45.335Z,67.993164
2018-09-27T04:50:14.697Z,68.09082
2018-09-27T04:50:44.065Z,68.322754
2018-09-27T04:51:14.338Z,68.823242
2018-09-27T04:51:43.736Z,69.458008
2018-09-27T04:52:13.073Z,69.659424
2018-09-27T04:52:42.452Z,69.86084
2018-09-27T04:53:11.809Z,70.092773
2018-09-27T04:53:41.214Z,70.294189
2018-09-27T04:54:10.568Z,70.391846
2018-09-27T04:54:39.933Z,70.391846
2018-09-27T04:55:09.301Z,70.19043
2018-09-27T04:55:38.658Z,69.958496
2018-09-27T04:56:08.014Z,69.958496
2018-09-27T04:56:37.382Z,70.056152
2018-09-27T04:57:06.759Z,70.159912
2018-09-27T04:57:36.138Z,69.659424
2018-09-27T04:58:05.509Z,69.458008
2018-09-27T04:58:34.862Z,69.458008
2018-09-27T04:59:04.259Z,69.555664
2018-09-27T04:59:33.620Z,69.75708
2018-09-27T05:00:04.038Z,69.75708
2018-09-27T05:00:33.338Z,69.86084
2018-09-27T05:01:02.702Z,69.75708
2018-09-27T05:01:32.059Z,69.75708
2018-09-27T05:02:02.404Z,69.75708
2018-09-27T05:02:31.763Z,69.958496
2018-09-27T05:03:01.124Z,70.056152
2018-09-27T05:03:30.483Z,70.159912
2018-09-27T05:03:59.905Z,69.86084
2018-09-27T05:04:29.267Z,69.555664
2018-09-27T05:04:58.624Z,69.458008
2018-09-27T05:05:28.984Z,69.622803
2018-09-27T05:05:58.335Z,69.024658
2018-09-27T05:06:27.799Z,68.927002
2018-09-27T05:06:57.075Z,69.42749
2018-09-27T05:07:26.432Z,68.621826
2018-09-27T05:07:55.816Z,68.823242
2018-09-27T05:08:25.196Z,68.823242
2018-09-27T05:08:54.568Z,68.823242
2018-09-27T05:09:23.983Z,68.725586
2018-09-27T05:09:53.349Z,68.725586
2018-09-27T05:10:22.735Z,68.823242
2018-09-27T05:10:52.138Z,68.725586
2018-09-27T05:11:21.501Z,68.859863
2018-09-27T05:11:50.885Z,69.158936
2018-09-27T05:12:20.259Z,69.158936
2018-09-27T05:12:49.640Z,69.158936
2018-09-27T05:13:19.041Z,68.927002
2018-09-27T05:13:48.399Z,68.927002
2018-09-27T05:14:17.814Z,68.823242
2018-09-27T05:14:47.183Z,68.823242
2018-09-27T05:15:16.548Z,68.426514
2018-09-27T05:15:45.939Z,68.52417
2018-09-27T05:16:15.294Z,68.322754
2018-09-27T05:16:44.675Z,68.225098
2018-09-27T05:17:14.034Z,68.52417
2018-09-27T05:17:43.429Z,68.823242
2018-09-27T05:18:12.796Z,68.493652
2018-09-27T05:18:42.195Z,68.493652
2018-09-27T05:19:11.562Z,67.889404
2018-09-27T05:19:41.973Z,67.791748
2018-09-27T05:20:11.330Z,67.791748
2018-09-27T05:20:40.692Z,67.590332
2018-09-27T05:21:10.053Z,67.889404
2018-09-27T05:21:39.530Z,67.590332
2018-09-27T05:22:08.774Z,67.39502
2018-09-27T05:22:39.127Z,67.492676
2018-09-27T05:23:08.582Z,67.492676
2018-09-27T05:23:37.965Z,67.791748
2018-09-27T05:24:07.326Z,67.089844
2018-09-27T05:24:36.752Z,67.089844
2018-09-27T05:25:06.130Z,66.992188
2018-09-27T05:25:36.479Z,67.089844
2018-09-27T05:26:05.847Z,66.992188
2018-09-27T05:26:35.232Z,66.85791
2018-09-27T05:27:04.627Z,66.85791
2018-09-27T05:27:34.058Z,66.85791
2018-09-27T05:28:04.382Z,66.662598
2018-09-27T05:28:33.762Z,66.662598
2018-09-27T05:29:03.133Z,66.96167
2018-09-27T05:29:32.490Z,66.85791
2018-09-27T05:30:01.915Z,66.662598
2018-09-27T05:30:31.295Z,66.760254
2018-09-27T05:31:00.683Z,66.558838
2018-09-27T05:31:30.043Z,66.662598
2018-09-27T05:31:59.420Z,66.461182
2018-09-27T05:32:28.819Z,66.558838
2018-09-27T05:32:58.188Z,66.558838
2018-09-27T05:33:27.613Z,66.558838
2018-09-27T05:33:56.951Z,66.558838
2018-09-27T05:34:26.325Z,66.461182
2018-09-27T05:34:55.737Z,66.363525
2018-09-27T05:35:25.107Z,66.363525
2018-09-27T05:35:54.470Z,66.363525
2018-09-27T05:36:23.840Z,68.457031
2018-09-27T05:36:53.206Z,66.931152
2018-09-27T05:37:22.581Z,69.024658
2018-09-27T05:37:51.949Z,67.126465
2018-09-27T05:38:21.320Z,66.430664